»·PEaware :: N133KP 3W2-KJFK

N133KP :: 3W2-KJFK

FLIGHT INFORMATION

Flight Status: Arrived
Operator: Privately registered:
United States
More flights under this callsign
Pilot: Erik A. (17503)
Aircraft: SOCATA TBM-900
(TBM9)
More flights by this aircraft type
Origin: 3W2 Put-In-Bay
United States
Destination: KJFK Kennedy Intl
United States
More flights between these airports :: More routes between these airports
Route: CXR J146 ETG J217 HNK V576 DNY PWL2
File this flight plan on PilotEdge
Remarks:
Altitude:
(Current/Filed)
21,000ft
Speed:
(Current/Filed)
320kts
Departed: 04-May-23 02:53 PM
Arrived: 04-May-23 05:26 PM
Distance/Time
Traveled:
412nm/2:32
Distance/Time
To Go:
Arrived

Flight Plot

Page will automatically refresh every two minutes.

Flight plan parsing failed; only flown route is shown


Map Options




Map Legend


Flown Route
Filed Route
Departure Airport
Arrival Airport
Navaid (VOR, NDB)
Fix

Horizontal Profiles

Position Reports

Time Latitude Longitude Heading Altitude Ground
Speed
04-May-23 14:36 41.637882 -82.828674 113 596ft 0kts
04-May-23 14:37 41.637882 -82.828674 113 596ft 0kts
04-May-23 14:38 41.637882 -82.828674 113 596ft 0kts
04-May-23 14:39 41.637882 -82.828674 113 596ft 0kts
04-May-23 14:40 41.637882 -82.828674 113 596ft 0kts
04-May-23 14:41 41.637882 -82.828674 113 596ft 0kts
04-May-23 14:42 41.637882 -82.828674 113 596ft 0kts
04-May-23 14:43 41.637882 -82.828674 113 596ft 0kts
04-May-23 14:44 41.637882 -82.828674 113 596ft 0kts
04-May-23 14:45 41.637882 -82.828674 113 596ft 0kts
04-May-23 14:46 41.637882 -82.828674 113 596ft 0kts
04-May-23 14:47 41.637882 -82.828674 113 596ft 0kts
04-May-23 14:48 41.639136 -82.826917 40 595ft 13kts
04-May-23 14:49 41.639950 -82.826152 52 594ft 0kts
04-May-23 14:50 41.639950 -82.826152 52 594ft 0kts
04-May-23 14:51 41.639552 -82.825867 222 594ft 0kts
04-May-23 14:52 41.632005 -82.833032 217 849ft 109kts
04-May-23 14:53 41.607537 -82.860260 199 1310ft 110kts
04-May-23 14:54 41.579323 -82.869454 188 1267ft 103kts
04-May-23 14:55 41.555510 -82.869106 168 1018ft 84kts
04-May-23 14:56 41.529662 -82.867614 177 811ft 84kts
04-May-23 14:57 41.511528 -82.866514 177 586ft 27kts
04-May-23 14:58 41.509812 -82.868972 268 587ft 11kts
04-May-23 14:59 41.509573 -82.869759 141 587ft 0kts
04-May-23 15:00 41.509573 -82.869759 141 587ft 0kts
04-May-23 15:01 41.509573 -82.869759 141 587ft 0kts
04-May-23 15:02 41.509573 -82.869759 141 587ft 0kts
04-May-23 15:03 41.509573 -82.869759 141 587ft 0kts
04-May-23 15:04 41.509573 -82.869759 141 587ft 0kts
04-May-23 15:05 41.509573 -82.869759 141 587ft 0kts
04-May-23 15:06 41.509573 -82.869759 141 587ft 0kts
04-May-23 15:07 41.509573 -82.869759 141 587ft 0kts
04-May-23 15:08 41.509573 -82.869759 141 587ft 0kts
04-May-23 15:09 41.509573 -82.869759 141 587ft 0kts
04-May-23 15:10 41.509573 -82.869759 141 587ft 0kts
04-May-23 15:11 41.509573 -82.869759 141 587ft 0kts
04-May-23 15:12 41.509573 -82.869759 141 587ft 0kts
04-May-23 15:13 41.509573 -82.869759 141 587ft 0kts
04-May-23 15:14 41.509573 -82.869759 141 587ft 0kts
04-May-23 15:15 41.509573 -82.869759 141 587ft 0kts
04-May-23 15:16 41.509573 -82.869759 141 587ft 0kts
04-May-23 15:17 41.509573 -82.869759 141 587ft 0kts
04-May-23 15:18 41.509573 -82.869759 141 587ft 0kts
04-May-23 15:19 41.509573 -82.869759 141 587ft 0kts
04-May-23 15:20 41.509573 -82.869759 141 587ft 0kts
04-May-23 15:21 41.509573 -82.869759 141 587ft 0kts
04-May-23 15:22 41.511329 -82.868449 1 586ft 19kts
04-May-23 15:23 41.516134 -82.869277 260 587ft 16kts
04-May-23 15:24 41.515158 -82.879058 261 587ft 20kts
04-May-23 15:25 41.515936 -82.881552 25 585ft 10kts
04-May-23 15:26 41.516072 -82.881132 84 586ft 0kts
04-May-23 15:27 41.516529 -82.876478 81 588ft 84kts
04-May-23 15:28 41.521172 -82.832662 82 1984ft 132kts
04-May-23 15:29 41.513452 -82.783975 93 3722ft 138kts
04-May-23 15:30 41.511639 -82.730396 87 5312ft 153kts
04-May-23 15:31 41.511766 -82.672710 85 6970ft 160kts
04-May-23 15:32 41.512288 -82.612751 85 8549ft 167kts
04-May-23 15:33 41.512827 -82.550517 84 10187ft 171kts
04-May-23 15:34 41.513377 -82.485931 82 11674ft 177kts
04-May-23 15:35 41.513960 -82.419424 82 12978ft 190kts
04-May-23 15:36 41.514523 -82.345095 83 14391ft 205kts
04-May-23 15:37 41.515038 -82.267726 83 15891ft 211kts
04-May-23 15:38 41.515531 -82.188599 83 17311ft 217kts
04-May-23 15:39 41.515980 -82.107470 84 18690ft 221kts
04-May-23 15:40 41.516368 -82.024445 84 19994ft 227kts
04-May-23 15:41 41.516714 -81.939439 84 21250ft 234kts
04-May-23 15:42 41.517019 -81.848516 84 21826ft 250kts
04-May-23 15:44 41.517236 -81.755148 84 22795ft 250kts
04-May-23 15:45 41.517388 -81.662541 85 24126ft 255kts
04-May-23 15:46 41.517470 -81.567993 85 25329ft 255kts
04-May-23 15:47 41.517481 -81.468946 86 25734ft 277kts
04-May-23 15:48 41.517340 -81.365023 86 26415ft 270kts
04-May-23 15:49 41.517206 -81.261273 87 26511ft 286kts
04-May-23 15:50 41.516038 -81.154192 93 26599ft 295kts
04-May-23 15:51 41.506465 -81.042731 94 26749ft 301kts
04-May-23 15:52 41.496729 -80.932096 94 27027ft 306kts
04-May-23 15:53 41.486630 -80.818731 95 27155ft 308kts
04-May-23 15:54 41.476395 -80.705005 95 27233ft 310kts
04-May-23 15:55 41.465860 -80.589291 95 27104ft 314kts
04-May-23 15:56 41.455228 -80.473860 95 27116ft 313kts
04-May-23 15:57 41.444510 -80.358771 95 27109ft 312kts
04-May-23 15:58 41.433732 -80.244269 96 27114ft 311kts
04-May-23 15:59 41.422831 -80.129739 96 27107ft 311kts
04-May-23 16:00 41.411843 -80.015530 96 27105ft 311kts
04-May-23 16:01 41.400765 -79.901605 96 27097ft 310kts
04-May-23 16:02 41.389607 -79.788023 96 27100ft 309kts
04-May-23 16:03 41.378358 -79.674729 96 27099ft 309kts
04-May-23 16:04 41.366993 -79.561435 95 27098ft 309kts
04-May-23 16:05 41.355530 -79.448195 95 27103ft 309kts
04-May-23 16:06 41.343946 -79.334960 96 27103ft 309kts
04-May-23 16:06 41.334207 -79.240672 96 27101ft 309kts
04-May-23 16:08 41.320468 -79.108845 96 27095ft 309kts
04-May-23 16:09 41.308539 -78.995570 95 27081ft 309kts
04-May-23 16:10 41.296468 -78.882136 95 27073ft 309kts
04-May-23 16:11 41.284343 -78.769211 95 27074ft 308kts
04-May-23 16:11 41.274161 -78.675301 95 27072ft 308kts
04-May-23 16:13 41.259789 -78.543861 95 27075ft 308kts
04-May-23 16:14 41.247362 -78.431471 95 27073ft 308kts
04-May-23 16:15 41.234835 -78.319017 96 27072ft 307kts
04-May-23 16:15 41.224321 -78.225512 96 27073ft 307kts
04-May-23 16:16 41.224508 -78.114550 66 27078ft 299kts
04-May-23 16:18 41.261382 -77.995667 64 27083ft 299kts
04-May-23 16:18 41.287950 -77.911076 65 27076ft 298kts
04-May-23 16:19 41.319957 -77.808884 66 27090ft 299kts
04-May-23 16:20 41.351995 -77.706117 66 27080ft 302kts
04-May-23 16:21 41.384082 -77.602843 65 27072ft 302kts
04-May-23 16:22 41.416218 -77.499015 66 27068ft 302kts
04-May-23 16:23 41.448154 -77.395402 66 27065ft 302kts
04-May-23 16:24 41.479971 -77.291804 66 27064ft 302kts
04-May-23 16:25 41.511671 -77.188178 66 27065ft 301kts
04-May-23 16:26 41.543213 -77.084657 66 27064ft 301kts
04-May-23 16:27 41.574653 -76.981067 66 27065ft 301kts
04-May-23 16:28 41.605888 -76.877748 66 27068ft 300kts
04-May-23 16:29 41.637036 -76.774305 66 27072ft 300kts
04-May-23 16:30 41.668034 -76.670958 66 27072ft 299kts
04-May-23 16:31 41.698675 -76.568387 66 27072ft 299kts
04-May-23 16:32 41.729435 -76.465014 66 27074ft 299kts
04-May-23 16:33 41.759978 -76.361958 66 27071ft 298kts
04-May-23 16:34 41.789150 -76.263151 67 27074ft 298kts
04-May-23 16:35 41.818724 -76.162578 67 27073ft 298kts
04-May-23 16:36 41.848986 -76.059266 67 27072ft 298kts
04-May-23 16:37 41.879302 -75.955348 67 27064ft 298kts
04-May-23 16:38 41.909456 -75.851572 67 27056ft 298kts
04-May-23 16:39 41.939424 -75.748020 67 27059ft 298kts
04-May-23 16:40 41.969356 -75.644157 67 27066ft 298kts
04-May-23 16:41 41.999105 -75.540523 67 27075ft 298kts
04-May-23 16:42 42.028809 -75.436601 67 27084ft 298kts
04-May-23 16:43 42.058487 -75.332354 67 27091ft 299kts
04-May-23 16:44 42.090648 -75.230697 65 26381ft 319kts
04-May-23 16:45 42.126139 -75.120190 65 25311ft 330kts
04-May-23 16:46 42.164410 -75.000511 65 22521ft 355kts
04-May-23 16:47 42.183747 -74.875414 84 21278ft 325kts
04-May-23 16:48 42.190822 -74.756935 85 20433ft 318kts
04-May-23 16:49 42.197850 -74.644132 84 19795ft 318kts
04-May-23 16:50 42.205593 -74.522289 84 17118ft 330kts
04-May-23 16:51 42.212546 -74.407781 84 16970ft 292kts
04-May-23 16:52 42.219079 -74.301091 84 16808ft 284kts
04-May-23 16:53 42.225276 -74.197200 86 16906ft 276kts
04-May-23 16:54 42.230843 -74.095531 84 16975ft 275kts
04-May-23 16:55 42.236882 -73.993913 83 17058ft 274kts
04-May-23 16:56 42.242833 -73.891090 84 16948ft 277kts
04-May-23 16:57 42.218141 -73.800338 157 16781ft 280kts
04-May-23 16:58 42.145437 -73.767215 163 16227ft 284kts
04-May-23 16:59 42.066843 -73.731390 161 14309ft 310kts
04-May-23 17:00 41.982809 -73.694823 162 12269ft 306kts
04-May-23 17:01 41.903722 -73.659970 161 11296ft 297kts
04-May-23 17:02 41.831372 -73.628760 164 10175ft 298kts
04-May-23 17:03 41.764687 -73.598297 164 9256ft 283kts
04-May-23 17:04 41.701085 -73.566540 160 9533ft 263kts
04-May-23 17:05 41.631857 -73.533801 159 8979ft 265kts
04-May-23 17:06 41.559628 -73.498577 160 7090ft 288kts
04-May-23 17:07 41.494729 -73.447315 138 6121ft 259kts
04-May-23 17:08 41.438018 -73.393078 144 5661ft 251kts
04-May-23 17:09 41.376199 -73.377994 197 5987ft 232kts
04-May-23 17:10 41.314832 -73.404424 193 5864ft 227kts
04-May-23 17:11 41.252802 -73.420689 190 5979ft 229kts
04-May-23 17:12 41.190171 -73.434999 186 6103ft 229kts
04-May-23 17:13 41.126817 -73.452147 192 5951ft 235kts
04-May-23 17:14 41.061427 -73.466519 187 5593ft 239kts
04-May-23 17:15 40.998995 -73.480476 191 4873ft 218kts
04-May-23 17:16 40.941337 -73.494093 189 4078ft 205kts
04-May-23 17:17 40.885886 -73.507622 189 3315ft 198kts
04-May-23 17:18 40.842447 -73.542218 228 2966ft 181kts
04-May-23 17:19 40.804952 -73.583047 219 2853ft 173kts
04-May-23 17:20 40.769006 -73.623632 217 2828ft 180kts
04-May-23 17:21 40.727755 -73.665448 221 2221ft 195kts
04-May-23 17:22 40.690658 -73.705470 223 1553ft 123kts
04-May-23 17:23 40.670883 -73.731055 221 689ft 85kts
04-May-23 17:24 40.651684 -73.749713 211 220ft 83kts
04-May-23 17:25 40.636579 -73.761616 209 15ft 20kts
04-May-23 17:26 40.632410 -73.766946 276 15ft 20kts
04-May-23 17:27 40.635098 -73.773202 299 15ft 12kts
04-May-23 17:28 40.636194 -73.775476 304 15ft 11kts
04-May-23 17:29 40.635351 -73.778035 210 15ft 12kts
04-May-23 17:30 40.634590 -73.781521 301 15ft 13kts
04-May-23 17:31 40.636932 -73.786662 300 15ft 17kts
04-May-23 17:32 40.639281 -73.791839 301 15ft 15kts
04-May-23 17:33 40.641226 -73.796073 302 15ft 12kts
04-May-23 17:34 40.643292 -73.799553 303 15ft 12kts
04-May-23 17:35 40.644973 -73.803226 299 15ft 11kts
04-May-23 17:36 40.646586 -73.806810 300 15ft 11kts
04-May-23 17:37 40.648198 -73.810364 301 15ft 11kts
04-May-23 17:38 40.650005 -73.810942 61 15ft 9kts
04-May-23 17:39 40.649473 -73.810094 214 15ft 0kts

Navigation Log

Ident Type
Flight plan parsing failed, navigation log unavailable